createdAt,value
2023-01-17T00:02:17.832Z,0.70
2023-01-17T00:05:03.625Z,0.60
2023-01-17T00:07:49.262Z,0.50
2023-01-17T00:10:21.804Z,0.50
2023-01-17T00:13:02.716Z,0.70
2023-01-17T00:15:31.425Z,0.80
2023-01-17T00:17:58.781Z,0.90
2023-01-17T00:20:47.507Z,0.90
2023-01-17T00:23:37.649Z,1.00
2023-01-17T00:26:10.157Z,1.00
2023-01-17T00:28:41.150Z,1.00
2023-01-17T00:31:09.452Z,1.00
2023-01-17T00:33:39.400Z,0.90
2023-01-17T00:36:07.162Z,0.80
2023-01-17T00:38:36.838Z,0.70
2023-01-17T00:41:06.712Z,0.80
2023-01-17T00:43:54.393Z,0.90
2023-01-17T00:46:40.030Z,0.90
2023-01-17T00:49:25.946Z,0.80
2023-01-17T00:52:11.560Z,0.80
2023-01-17T00:54:56.982Z,0.90
2023-01-17T00:57:42.521Z,0.80
2023-01-17T01:00:28.607Z,0.70
2023-01-17T01:03:13.972Z,0.80
2023-01-17T01:06:01.556Z,0.90
2023-01-17T01:08:48.782Z,0.90
2023-01-17T01:11:36.695Z,0.70
2023-01-17T01:14:23.237Z,0.80
2023-01-17T01:17:08.951Z,0.80
2023-01-17T01:19:54.456Z,0.70
2023-01-17T01:22:39.715Z,0.80
2023-01-17T01:25:25.320Z,0.80
2023-01-17T01:28:10.527Z,0.80
2023-01-17T01:30:56.021Z,0.90
2023-01-17T01:33:22.751Z,0.80
2023-01-17T01:35:51.787Z,0.90
2023-01-17T01:38:20.787Z,0.80
2023-01-17T01:40:53.362Z,0.70
2023-01-17T01:43:42.472Z,0.70
2023-01-17T01:46:15.143Z,0.60
2023-01-17T01:49:06.572Z,0.70
2023-01-17T01:51:45.804Z,0.80
2023-01-17T01:54:22.107Z,0.80
2023-01-17T01:56:50.456Z,0.90
2023-01-17T01:59:23.356Z,0.90
2023-01-17T02:01:53.205Z,0.90
2023-01-17T02:04:20.900Z,1.00
2023-01-17T02:07:00.610Z,1.00
2023-01-17T02:09:27.733Z,1.00
2023-01-17T02:11:55.004Z,0.90
2023-01-17T02:14:22.778Z,0.80
2023-01-17T02:17:01.533Z,0.80
2023-01-17T02:19:48.159Z,0.90
2023-01-17T02:22:34.268Z,0.90
2023-01-17T02:25:31.289Z,0.90
2023-01-17T02:28:16.297Z,1.00
2023-01-17T02:30:54.499Z,0.90
2023-01-17T02:33:38.690Z,1.00
2023-01-17T02:36:22.128Z,1.00
2023-01-17T02:39:11.846Z,1.00
2023-01-17T02:41:42.856Z,0.90
2023-01-17T02:44:11.053Z,0.90
2023-01-17T02:47:27.840Z,0.90
2023-01-17T02:50:01.580Z,0.90
2023-01-17T02:52:46.950Z,0.90
2023-01-17T02:55:32.185Z,0.90
2023-01-17T02:58:32.996Z,0.80
2023-01-17T03:01:43.030Z,0.80
2023-01-17T03:04:23.689Z,0.90
2023-01-17T03:07:02.055Z,0.90
2023-01-17T03:09:33.023Z,0.90
2023-01-17T03:12:00.455Z,0.90
2023-01-17T03:14:31.087Z,0.80
2023-01-17T03:16:58.021Z,0.70
2023-01-17T03:19:24.811Z,0.80
2023-01-17T03:21:51.544Z,0.80
2023-01-17T03:24:18.325Z,0.80
2023-01-17T03:26:45.076Z,0.90
2023-01-17T03:29:11.992Z,0.80
2023-01-17T03:31:38.741Z,0.70
2023-01-17T03:34:05.526Z,0.60
2023-01-17T03:36:32.286Z,0.50
2023-01-17T03:38:59.053Z,0.60
2023-01-17T03:41:26.090Z,0.70
2023-01-17T03:43:55.249Z,0.70
2023-01-17T03:46:24.541Z,0.70
2023-01-17T03:48:52.085Z,0.70
2023-01-17T03:51:19.060Z,0.60
2023-01-17T03:53:48.555Z,0.60
2023-01-17T03:56:15.515Z,0.60
2023-01-17T03:58:42.577Z,0.60
2023-01-17T04:01:09.636Z,0.60
2023-01-17T04:03:36.439Z,0.60
2023-01-17T04:06:03.339Z,0.60
2023-01-17T04:08:30.572Z,0.60
2023-01-17T04:10:57.454Z,0.60
2023-01-17T04:13:24.329Z,0.70
2023-01-17T04:15:51.763Z,0.80
2023-01-17T04:18:20.399Z,0.80
2023-01-17T04:20:47.303Z,0.80
2023-01-17T04:23:14.109Z,0.90
2023-01-17T04:25:40.975Z,0.80
2023-01-17T04:28:07.755Z,0.70
2023-01-17T04:30:34.609Z,0.60
2023-01-17T04:33:02.968Z,0.60
2023-01-17T04:35:31.556Z,0.70
2023-01-17T04:37:58.285Z,0.70
2023-01-17T04:40:27.867Z,0.70
2023-01-17T04:42:54.608Z,0.50
2023-01-17T04:45:21.930Z,0.60
2023-01-17T04:47:48.668Z,0.70
2023-01-17T04:50:15.702Z,0.80
2023-01-17T04:52:45.175Z,0.70
2023-01-17T04:55:11.986Z,0.70
2023-01-17T04:57:38.783Z,0.60
2023-01-17T05:00:06.177Z,0.50
2023-01-17T05:02:33.009Z,0.40
2023-01-17T05:04:59.775Z,0.30
2023-01-17T05:07:26.552Z,0.30
2023-01-17T05:09:53.307Z,0.30
2023-01-17T05:12:20.114Z,0.30
2023-01-17T05:14:49.406Z,0.40
2023-01-17T05:17:16.170Z,0.40
2023-01-17T05:19:42.915Z,0.40
2023-01-17T05:22:15.028Z,0.40
2023-01-17T05:24:45.673Z,0.40
2023-01-17T05:27:13.393Z,0.50
2023-01-17T05:29:42.380Z,0.20
2023-01-17T05:32:09.197Z,0.20
2023-01-17T05:34:38.422Z,0.20
2023-01-17T05:37:05.167Z,0.30
2023-01-17T05:39:31.991Z,0.30
2023-01-17T05:41:59.768Z,0.40
2023-01-17T05:44:29.701Z,0.20
2023-01-17T05:46:56.766Z,0.20
2023-01-17T05:49:23.618Z,0.20
2023-01-17T05:51:50.743Z,0.30
2023-01-17T05:54:18.076Z,0.20
2023-01-17T05:56:47.471Z,0.20
2023-01-17T05:59:14.470Z,0.30
2023-01-17T06:01:41.310Z,0.20
2023-01-17T06:04:08.123Z,0.20
2023-01-17T06:06:34.937Z,0.30
2023-01-17T06:09:01.695Z,0.40
2023-01-17T06:11:28.496Z,0.40
2023-01-17T06:13:55.262Z,0.40
2023-01-17T06:16:22.085Z,0.40
2023-01-17T06:18:48.861Z,0.40
2023-01-17T06:21:15.601Z,0.40
2023-01-17T06:23:45.415Z,0.30
2023-01-17T06:26:12.243Z,0.40
2023-01-17T06:28:39.180Z,0.30
2023-01-17T06:31:09.400Z,0.20
2023-01-17T06:33:36.296Z,0.20
2023-01-17T06:36:06.254Z,0.10
2023-01-17T06:38:33.149Z,0.20
2023-01-17T06:41:06.655Z,0.20
2023-01-17T06:43:34.891Z,0.30
2023-01-17T06:46:02.156Z,0.30
2023-01-17T06:48:30.291Z,0.30
2023-01-17T06:50:58.015Z,0.40
2023-01-17T06:53:28.156Z,0.50
2023-01-17T06:55:58.859Z,0.60
2023-01-17T06:58:26.965Z,0.60
2023-01-17T07:00:53.995Z,0.60
2023-01-17T07:03:23.351Z,0.50
2023-01-17T07:05:52.736Z,0.50
2023-01-17T07:08:20.585Z,0.60
2023-01-17T07:10:48.046Z,0.40
2023-01-17T07:13:15.047Z,0.30
2023-01-17T07:15:44.427Z,0.30
2023-01-17T07:18:11.190Z,0.40
2023-01-17T07:20:38.545Z,0.50
2023-01-17T07:23:06.165Z,0.60
2023-01-17T07:25:32.938Z,0.60
2023-01-17T07:28:00.445Z,0.60
2023-01-17T07:30:30.278Z,0.60
2023-01-17T07:32:57.131Z,0.40
2023-01-17T07:35:27.699Z,0.40
2023-01-17T07:37:54.824Z,0.40
2023-01-17T07:40:22.704Z,0.50
2023-01-17T07:42:49.752Z,0.50
2023-01-17T07:45:19.474Z,0.50
2023-01-17T07:47:51.451Z,0.50
2023-01-17T07:50:18.436Z,0.60
2023-01-17T07:52:49.888Z,0.50
2023-01-17T07:55:19.128Z,0.40
2023-01-17T07:57:49.723Z,0.60
2023-01-17T08:00:17.496Z,0.50
2023-01-17T08:02:53.084Z,0.60
2023-01-17T08:05:21.990Z,0.70
2023-01-17T08:07:51.236Z,0.70
2023-01-17T08:10:18.347Z,0.80
2023-01-17T08:12:49.981Z,0.80
2023-01-17T08:15:17.950Z,0.80
2023-01-17T08:17:49.443Z,1.00
2023-01-17T08:20:16.813Z,1.10
2023-01-17T08:22:43.585Z,1.20
2023-01-17T08:25:10.681Z,1.30
2023-01-17T08:27:37.437Z,1.30
2023-01-17T08:30:05.569Z,1.10
2023-01-17T08:32:32.869Z,1.20
2023-01-17T08:34:59.652Z,1.30
2023-01-17T08:37:26.447Z,1.30
2023-01-17T08:39:53.187Z,1.30
2023-01-17T08:42:20.002Z,1.10
2023-01-17T08:44:48.018Z,1.30
2023-01-17T08:47:14.784Z,1.40
2023-01-17T08:49:45.749Z,1.40
2023-01-17T08:52:16.187Z,1.30
2023-01-17T08:54:42.935Z,1.20
2023-01-17T08:57:10.429Z,1.20
2023-01-17T08:59:37.488Z,1.10
2023-01-17T09:02:15.976Z,1.10
2023-01-17T09:04:47.081Z,1.30
2023-01-17T09:07:15.361Z,1.30
2023-01-17T09:09:44.536Z,1.20
2023-01-17T09:12:11.311Z,1.10
2023-01-17T09:14:38.514Z,1.20
2023-01-17T09:17:13.156Z,1.30
2023-01-17T09:19:46.564Z,1.30
2023-01-17T09:22:13.620Z,1.30
2023-01-17T09:24:42.519Z,1.30
2023-01-17T09:27:09.290Z,1.40
2023-01-17T09:29:36.089Z,1.40
2023-01-17T09:32:04.928Z,1.50
2023-01-17T09:34:31.697Z,1.50
2023-01-17T09:37:00.500Z,1.50
2023-01-17T09:39:27.345Z,1.70
2023-01-17T09:42:21.936Z,1.60
2023-01-17T09:44:53.563Z,1.70
2023-01-17T09:47:43.789Z,1.80
2023-01-17T09:50:20.142Z,1.70
2023-01-17T09:52:49.971Z,1.90
2023-01-17T09:55:18.136Z,1.90
2023-01-17T09:57:51.847Z,1.90
2023-01-17T10:00:27.423Z,2.00
2023-01-17T10:03:29.510Z,2.10
2023-01-17T10:06:05.438Z,2.10
2023-01-17T10:08:41.464Z,2.10
2023-01-17T10:11:24.467Z,2.10
2023-01-17T10:14:24.813Z,2.10
2023-01-17T10:17:01.021Z,2.20
2023-01-17T10:19:55.065Z,2.40
2023-01-17T10:22:44.848Z,2.40
2023-01-17T10:25:28.297Z,2.40
2023-01-17T10:28:02.340Z,2.40
2023-01-17T10:30:33.236Z,2.50
2023-01-17T10:33:03.994Z,2.50
2023-01-17T10:35:34.502Z,2.40
2023-01-17T10:38:05.980Z,2.30
2023-01-17T10:40:57.776Z,2.40
2023-01-17T10:44:03.996Z,2.40
2023-01-17T10:46:40.687Z,2.50
2023-01-17T10:49:22.254Z,2.50
2023-01-17T10:52:00.344Z,2.60
2023-01-17T10:54:33.120Z,2.70
2023-01-17T10:57:01.811Z,2.70
2023-01-17T10:59:37.192Z,2.60
2023-01-17T11:02:14.656Z,2.50
2023-01-17T11:04:42.415Z,2.50
2023-01-17T11:07:15.010Z,2.70
2023-01-17T11:09:44.006Z,2.70
2023-01-17T11:12:40.138Z,2.70
2023-01-17T11:15:22.003Z,2.60
2023-01-17T11:18:01.237Z,2.60
2023-01-17T11:20:39.971Z,2.60
2023-01-17T11:23:18.051Z,2.60
2023-01-17T11:25:58.494Z,2.70
2023-01-17T11:28:31.082Z,2.60
2023-01-17T11:31:09.253Z,2.60
2023-01-17T11:33:47.706Z,2.60
2023-01-17T11:36:27.559Z,2.60
2023-01-17T11:39:17.507Z,2.60
2023-01-17T11:41:48.960Z,2.60
2023-01-17T11:44:33.356Z,2.60
2023-01-17T11:47:12.243Z,2.60
2023-01-17T11:49:49.306Z,2.60
2023-01-17T11:52:33.721Z,2.60
2023-01-17T11:55:00.846Z,2.70
2023-01-17T11:57:30.813Z,2.60
2023-01-17T12:00:46.739Z,2.70
2023-01-17T12:03:19.643Z,2.60
2023-01-17T12:06:00.076Z,2.50
2023-01-17T12:09:02.058Z,2.60
2023-01-17T12:12:14.116Z,2.60
2023-01-17T12:15:09.194Z,2.50
2023-01-17T12:18:05.831Z,2.50
2023-01-17T12:20:55.657Z,2.60
2023-01-17T12:23:48.398Z,2.70
2023-01-17T12:26:38.710Z,2.70
2023-01-17T12:29:32.751Z,2.70
2023-01-17T12:32:28.798Z,2.70
2023-01-17T12:35:35.844Z,2.70
2023-01-17T12:38:09.185Z,2.80
2023-01-17T12:40:40.187Z,2.80
2023-01-17T12:43:25.786Z,2.60
2023-01-17T12:45:54.701Z,2.50
2023-01-17T12:48:30.570Z,2.60
2023-01-17T12:51:31.812Z,2.50
2023-01-17T12:54:33.493Z,2.50
2023-01-17T12:57:14.135Z,2.60
2023-01-17T13:00:01.349Z,2.70
2023-01-17T13:02:36.872Z,2.60
2023-01-17T13:05:16.743Z,2.60
2023-01-17T13:07:55.505Z,2.50
2023-01-17T13:10:22.563Z,2.50
2023-01-17T13:12:53.495Z,2.60
2023-01-17T13:15:25.872Z,2.60
2023-01-17T13:18:14.724Z,2.70
2023-01-17T13:21:06.496Z,2.60
2023-01-17T13:23:55.832Z,2.60
2023-01-17T13:26:28.337Z,2.60
2023-01-17T13:29:15.331Z,2.60
2023-01-17T13:31:48.280Z,2.70
2023-01-17T13:34:40.339Z,2.60
2023-01-17T13:37:26.655Z,2.60
2023-01-17T13:40:05.401Z,2.60
2023-01-17T13:42:56.869Z,2.60
2023-01-17T13:45:37.218Z,2.70
2023-01-17T13:48:37.644Z,2.60
2023-01-17T13:51:07.872Z,2.60
2023-01-17T13:53:34.621Z,2.60
2023-01-17T13:56:10.140Z,2.60
2023-01-17T13:59:02.044Z,2.70
2023-01-17T14:01:38.460Z,2.70
2023-01-17T14:04:17.014Z,2.60
2023-01-17T14:06:55.408Z,2.60
2023-01-17T14:09:41.918Z,2.50
2023-01-17T14:12:11.433Z,2.60
2023-01-17T14:14:43.999Z,2.50
2023-01-17T14:17:26.588Z,2.60
2023-01-17T14:20:04.125Z,2.60
2023-01-17T14:22:38.936Z,2.50
2023-01-17T14:25:11.834Z,2.50
2023-01-17T14:27:51.552Z,2.50
2023-01-17T14:34:34.704Z,2.50
2023-01-17T14:37:57.450Z,2.50
2023-01-17T14:40:26.627Z,2.50
2023-01-17T14:55:42.061Z,2.50
2023-01-17T15:18:14.533Z,2.60
2023-01-17T15:24:34.565Z,2.60
2023-01-17T15:27:02.116Z,2.50
2023-01-17T15:29:32.867Z,2.50
2023-01-17T15:32:19.632Z,2.50
2023-01-17T15:38:28.940Z,2.40
2023-01-17T15:44:49.245Z,2.20
2023-01-17T15:47:39.753Z,2.20
2023-01-17T15:50:21.414Z,2.10
2023-01-17T15:53:02.213Z,2.00
2023-01-17T15:55:37.598Z,2.00
2023-01-17T15:58:21.531Z,2.00
2023-01-17T16:00:48.740Z,1.90
2023-01-17T16:03:32.892Z,1.90
2023-01-17T16:06:02.919Z,1.80
2023-01-17T16:08:41.559Z,1.80
2023-01-17T16:11:11.566Z,1.80
2023-01-17T16:13:39.224Z,1.80
2023-01-17T16:16:17.710Z,1.80
2023-01-17T16:18:46.572Z,1.70
2023-01-17T16:21:28.412Z,1.70
2023-01-17T16:23:58.487Z,1.70
2023-01-17T16:26:25.329Z,1.70
2023-01-17T16:28:52.407Z,1.70
2023-01-17T16:31:19.501Z,1.70
2023-01-17T16:33:49.425Z,1.70
2023-01-17T16:36:17.316Z,1.70
2023-01-17T16:38:45.379Z,1.70
2023-01-17T16:41:12.448Z,1.70
2023-01-17T16:43:40.595Z,1.70
2023-01-17T16:46:07.897Z,1.70
2023-01-17T16:48:36.808Z,1.70
2023-01-17T16:51:07.259Z,1.70
2023-01-17T16:53:35.260Z,1.80
2023-01-17T16:56:09.305Z,1.70
2023-01-17T16:58:36.096Z,1.70
2023-01-17T17:01:02.888Z,1.70
2023-01-17T17:03:31.014Z,1.60
2023-01-17T17:06:02.717Z,1.60
2023-01-17T17:08:29.682Z,1.50
2023-01-17T17:11:16.604Z,1.50
2023-01-17T17:13:45.876Z,1.30
2023-01-17T17:16:21.822Z,1.30
2023-01-17T17:18:56.022Z,1.20
2023-01-17T17:21:22.852Z,1.20
2023-01-17T17:23:56.735Z,1.30
2023-01-17T17:26:26.652Z,1.20
2023-01-17T17:28:54.031Z,1.20
2023-01-17T17:31:21.090Z,1.20
2023-01-17T17:33:48.137Z,1.30
2023-01-17T17:36:15.109Z,1.30
2023-01-17T17:38:50.734Z,1.30
2023-01-17T17:41:20.186Z,1.30
2023-01-17T17:43:49.413Z,1.30
2023-01-17T17:46:17.313Z,1.30
2023-01-17T17:48:45.252Z,1.30
2023-01-17T17:51:34.057Z,1.40
2023-01-17T17:54:06.394Z,1.40
2023-01-17T17:56:35.428Z,1.40
2023-01-17T17:59:03.610Z,1.30
2023-01-17T18:01:31.157Z,1.40
2023-01-17T18:04:02.082Z,1.40
2023-01-17T18:06:28.860Z,1.30
2023-01-17T18:08:55.839Z,1.30
2023-01-17T18:11:27.575Z,1.20
2023-01-17T18:14:00.218Z,1.20
2023-01-17T18:16:35.780Z,1.10
2023-01-17T18:19:04.124Z,1.10
2023-01-17T18:21:36.877Z,1.10
2023-01-17T18:24:06.751Z,1.20
2023-01-17T18:26:36.925Z,1.30
2023-01-17T18:29:08.272Z,1.30
2023-01-17T18:31:35.283Z,1.30
2023-01-17T18:34:07.765Z,1.30
2023-01-17T18:36:34.899Z,1.30
2023-01-17T18:39:09.120Z,1.40
2023-01-17T18:41:35.984Z,1.30
2023-01-17T18:44:06.653Z,1.30
2023-01-17T18:46:36.731Z,1.30
2023-01-17T18:49:06.841Z,1.30
2023-01-17T18:51:34.576Z,1.30
2023-01-17T18:54:05.809Z,1.30
2023-01-17T18:56:36.653Z,1.30
2023-01-17T18:59:10.518Z,1.30
2023-01-17T19:01:37.501Z,1.30
2023-01-17T19:04:06.010Z,1.30
2023-01-17T19:06:38.726Z,1.30
2023-01-17T19:09:07.728Z,1.30
2023-01-17T19:11:35.925Z,1.10
2023-01-17T19:14:04.082Z,1.10
2023-01-17T19:16:34.792Z,1.10
2023-01-17T19:19:04.796Z,1.20
2023-01-17T19:21:33.020Z,1.10
2023-01-17T19:24:03.033Z,1.00
2023-01-17T19:30:21.909Z,0.90
2023-01-17T19:32:52.384Z,0.90
2023-01-17T19:35:22.466Z,1.00
2023-01-17T19:37:51.531Z,1.00
2023-01-17T19:40:19.921Z,1.00
2023-01-17T19:42:47.626Z,1.10
2023-01-17T19:45:15.093Z,1.20
2023-01-17T19:47:41.960Z,1.10
2023-01-17T19:50:09.870Z,1.10
2023-01-17T19:52:38.780Z,1.10
2023-01-17T19:55:09.940Z,1.20
2023-01-17T19:57:37.472Z,1.20
2023-01-17T20:00:13.182Z,1.20
2023-01-17T20:02:40.468Z,1.20
2023-01-17T20:05:09.336Z,1.30
2023-01-17T20:07:36.143Z,1.30
2023-01-17T20:10:03.134Z,1.30
2023-01-17T20:12:33.623Z,1.30
2023-01-17T20:15:04.206Z,1.30
2023-01-17T20:17:31.791Z,1.40
2023-01-17T20:19:59.612Z,1.30
2023-01-17T20:22:26.593Z,1.30
2023-01-17T20:24:53.430Z,1.30
2023-01-17T20:27:24.068Z,1.30
2023-01-17T20:29:50.796Z,1.20
2023-01-17T20:32:18.074Z,1.10
2023-01-17T20:34:45.573Z,1.10
2023-01-17T20:37:14.482Z,1.10
2023-01-17T20:39:41.498Z,1.10
2023-01-17T20:42:08.269Z,1.00
2023-01-17T20:44:38.037Z,1.10
2023-01-17T20:47:05.019Z,1.10
2023-01-17T20:49:32.740Z,1.20
2023-01-17T20:52:02.239Z,1.20
2023-01-17T20:54:29.172Z,1.20
2023-01-17T20:56:55.993Z,1.20
2023-01-17T20:59:22.904Z,1.20
2023-01-17T21:01:50.658Z,1.20
2023-01-17T21:04:27.496Z,1.10
2023-01-17T21:06:54.766Z,1.10
2023-01-17T21:09:22.036Z,1.10
2023-01-17T21:11:49.031Z,1.20
2023-01-17T21:14:15.867Z,1.20
2023-01-17T21:16:44.312Z,1.20
2023-01-17T21:19:16.121Z,1.10
2023-01-17T21:21:44.633Z,1.10
2023-01-17T21:24:17.877Z,1.10
2023-01-17T21:26:45.833Z,1.10
2023-01-17T21:29:18.331Z,1.10
2023-01-17T21:31:45.339Z,1.00
2023-01-17T21:34:13.667Z,1.00
2023-01-17T21:36:42.163Z,0.90
2023-01-17T21:39:29.135Z,1.10
2023-01-17T21:41:58.057Z,1.20
2023-01-17T21:44:27.852Z,1.20
2023-01-17T21:46:56.512Z,1.20
2023-01-17T21:49:23.644Z,1.30
2023-01-17T21:51:53.156Z,1.30
2023-01-17T21:54:20.272Z,1.20
2023-01-17T21:57:07.896Z,1.10
2023-01-17T21:59:34.695Z,1.10
2023-01-17T22:02:04.191Z,1.20
2023-01-17T22:04:31.000Z,1.10
2023-01-17T22:06:57.858Z,1.20
2023-01-17T22:09:24.644Z,1.20
2023-01-17T22:11:51.398Z,1.30
2023-01-17T22:14:22.865Z,1.30
2023-01-17T22:16:50.310Z,1.20
2023-01-17T22:19:19.107Z,1.20
2023-01-17T22:21:45.852Z,1.10
2023-01-17T22:24:13.705Z,1.20
2023-01-17T22:26:41.905Z,1.10
2023-01-17T22:29:11.093Z,1.10
2023-01-17T22:31:37.877Z,1.10
2023-01-17T22:34:05.460Z,1.20
2023-01-17T22:36:33.390Z,1.20
2023-01-17T22:39:00.584Z,1.20
2023-01-17T22:41:29.883Z,1.30
2023-01-17T22:43:58.706Z,1.30
2023-01-17T22:46:32.431Z,1.30
2023-01-17T22:48:59.807Z,1.30
2023-01-17T22:51:28.173Z,1.30
2023-01-17T22:53:58.260Z,1.30
2023-01-17T22:56:34.083Z,1.20
2023-01-17T22:59:01.530Z,1.00
2023-01-17T23:04:15.254Z,1.10
2023-01-17T23:06:45.390Z,1.10
2023-01-17T23:09:15.458Z,1.20
2023-01-17T23:11:49.951Z,1.10
2023-01-17T23:14:52.955Z,1.10
2023-01-17T23:17:39.676Z,1.10
2023-01-17T23:39:04.469Z,1.10
2023-01-17T23:41:49.591Z,1.20
2023-01-17T23:44:16.412Z,1.30
2023-01-17T23:46:44.868Z,1.20
2023-01-17T23:49:11.720Z,1.20
2023-01-17T23:51:38.444Z,1.20
2023-01-17T23:54:07.781Z,1.20
2023-01-17T23:56:34.528Z,1.20
2023-01-17T23:59:01.311Z,1.20
